Time;durP1;ratioP1;P1;durP2;ratioP2;P2;SDS_P1;SDS_P2;PMS_P1;PMS_P2;Temp;Humidity;BMP_temperature;BMP_pressure;BME280_temperature;BME280_humidity;BME280_pressure;Samples;Min_cycle;Max_cycle;Signal;HPM_P1;HPM_P2
2022/04/16 00:02:03;;;;;;;;;21.33;16.00;;;;;16.59;49.28;102284.03;5056846;28;45967;-43
2022/04/16 00:04:29;;;;;;;;;17.00;17.00;;;;;16.50;49.25;102279.53;5056833;28;45388;-43
2022/04/16 00:06:56;;;;;;;;;13.67;13.67;;;;;16.53;48.94;102287.31;5057213;28;45379;-44
2022/04/16 00:09:22;;;;;;;;;14.00;14.00;;;;;16.53;48.78;102295.38;5057194;28;45301;-44
2022/04/16 00:11:48;;;;;;;;;22.67;16.00;;;;;16.50;48.99;102290.28;5056430;28;47328;-44
2022/04/16 00:14:15;;;;;;;;;17.67;13.67;;;;;16.38;49.21;102273.50;5056827;28;45321;-43
2022/04/16 00:16:40;;;;;;;;;12.67;12.67;;;;;16.43;49.29;102286.47;5055536;28;45371;-43
2022/04/16 00:19:08;;;;;;;;;15.67;13.67;;;;;16.44;49.67;102290.88;5057073;28;45218;-43
2022/04/16 00:21:35;;;;;;;;;16.67;13.33;;;;;16.39;49.60;102277.03;5056516;28;45342;-45
2022/04/16 00:24:01;;;;;;;;;19.67;16.00;;;;;16.37;49.72;102285.25;5056530;28;45359;-43
2022/04/16 00:26:27;;;;;;;;;20.00;15.00;;;;;16.35;49.69;102287.25;5056874;28;45315;-42
2022/04/16 00:28:52;;;;;;;;;14.33;13.33;;;;;16.34;49.76;102284.69;5056959;28;45590;-45
2022/04/16 00:31:18;;;;;;;;;20.33;15.33;;;;;16.30;49.13;102280.59;5056468;28;46150;-44
2022/04/16 00:33:46;;;;;;;;;14.00;12.67;;;;;16.27;50.01;102275.56;5055504;28;45434;-43
2022/04/16 00:36:15;;;;;;;;;15.00;14.00;;;;;16.26;50.12;102276.53;5056589;28;45871;-43
2022/04/16 00:38:41;;;;;;;;;17.00;13.00;;;;;16.25;50.24;102280.22;5058250;28;45385;-45
2022/04/16 00:41:06;;;;;;;;;21.67;13.67;;;;;16.23;49.99;102274.16;5060211;28;45464;-43
2022/04/16 00:43:33;;;;;;;;;19.33;15.67;;;;;16.12;50.39;102267.09;5059978;28;45300;-44
2022/04/16 00:45:59;;;;;;;;;15.33;12.33;;;;;16.19;50.35;102282.50;5060190;28;45222;-44
2022/04/16 00:48:25;;;;;;;;;17.33;17.00;;;;;16.17;50.59;102273.72;5060413;28;45290;-46
2022/04/16 00:50:53;;;;;;;;;17.33;15.00;;;;;16.17;50.46;102270.19;5059748;28;46379;-43
2022/04/16 00:53:19;;;;;;;;;17.33;15.33;;;;;16.15;50.67;102275.72;5059903;28;45372;-43
2022/04/16 00:55:45;;;;;;;;;23.67;14.33;;;;;16.15;50.77;102274.88;5059940;28;45297;-47
2022/04/16 00:58:10;;;;;;;;;13.67;13.67;;;;;16.14;50.86;102273.19;5059660;28;45415;-43
2022/04/16 01:00:36;;;;;;;;;18.00;12.33;;;;;16.12;50.80;102276.00;5059840;28;45987;-46
2022/04/16 01:03:02;;;;;;;;;16.00;16.00;;;;;16.12;50.96;102273.31;5059780;28;45324;-45
2022/04/16 01:05:28;;;;;;;;;17.33;14.00;;;;;16.08;51.06;102265.69;5059869;28;45387;-44
2022/04/16 01:07:58;;;;;;;;;19.00;15.00;;;;;16.09;51.29;102278.13;5059944;28;45526;-47
2022/04/16 01:10:28;;;;;;;;;16.67;14.33;;;;;16.03;51.20;102273.34;5059466;28;47036;-46
2022/04/16 01:12:58;;;;;;;;;15.00;13.33;;;;;16.03;51.67;102266.13;5059426;28;45385;-44
2022/04/16 01:15:24;;;;;;;;;23.00;16.00;;;;;16.03;51.49;102270.66;5059802;28;45342;-45
2022/04/16 01:17:51;;;;;;;;;21.00;16.67;;;;;16.02;51.34;102269.81;5059734;28;45317;-46
2022/04/16 01:20:18;;;;;;;;;19.00;14.67;;;;;15.99;51.70;102263.91;5059488;28;46427;-44
2022/04/16 01:22:45;;;;;;;;;20.33;16.33;;;;;16.02;51.97;102268.97;5059351;28;45246;-43
2022/04/16 01:25:11;;;;;;;;;22.67;17.00;;;;;16.01;51.82;102270.78;5059561;28;45278;-44
2022/04/16 01:27:39;;;;;;;;;13.33;12.33;;;;;16.01;51.34;102281.53;5059488;28;45204;-43
2022/04/16 01:30:05;;;;;;;;;15.00;10.00;;;;;15.94;51.57;102267.00;5059324;28;45403;-43
2022/04/16 01:32:34;;;;;;;;;15.33;15.00;;;;;15.98;51.96;102272.94;5059330;28;45457;-43
2022/04/16 01:35:00;;;;;;;;;23.00;18.33;;;;;15.92;51.91;102263.63;5059533;28;45176;-43
2022/04/16 01:37:31;;;;;;;;;14.33;14.33;;;;;15.95;52.06;102271.38;5059500;28;45386;-43
2022/04/16 01:39:58;;;;;;;;;15.33;14.00;;;;;15.95;51.62;102271.38;5059043;28;47103;-43
2022/04/16 01:42:24;;;;;;;;;20.00;18.00;;;;;15.93;52.12;102268.84;5059076;28;45304;-42
2022/04/16 01:44:51;;;;;;;;;15.00;14.00;;;;;15.94;51.99;102275.91;5059035;28;45214;-44
2022/04/16 01:47:16;;;;;;;;;23.33;17.67;;;;;15.94;51.89;102267.00;5059474;28;45527;-43
2022/04/16 01:49:42;;;;;;;;;20.67;19.00;;;;;15.82;52.33;102252.06;5057954;28;45387;-45
2022/04/16 01:52:08;;;;;;;;;14.33;13.67;;;;;15.76;52.21;102248.13;5059018;28;45313;-43
2022/04/16 01:54:34;;;;;;;;;19.67;16.67;;;;;15.91;51.66;102275.34;5058924;28;45257;-43
2022/04/16 01:56:59;;;;;;;;;20.33;14.67;;;;;15.88;52.43;102273.78;5059054;28;45456;-44
2022/04/16 01:59:25;;;;;;;;;22.67;16.67;;;;;15.87;52.47;102282.00;5058590;28;47328;-45
2022/04/16 02:01:51;;;;;;;;;19.00;16.33;;;;;15.84;52.57;102287.63;5058628;28;45376;-43
2022/04/16 02:04:17;;;;;;;;;24.67;16.00;;;;;15.81;52.53;102286.09;5058844;28;45423;-45
2022/04/16 02:06:42;;;;;;;;;18.67;17.33;;;;;15.75;53.03;102283.97;5059044;28;45341;-46
2022/04/16 02:09:07;;;;;;;;;21.00;17.33;;;;;15.74;52.90;102284.13;5058859;28;46269;-43
2022/04/16 02:11:33;;;;;;;;;25.67;19.33;;;;;15.69;52.68;102279.19;5058764;28;45375;-49
2022/04/16 02:13:58;;;;;;;;;22.00;15.33;;;;;15.65;52.67;102284.00;5058677;28;45292;-47
2022/04/16 02:16:24;;;;;;;;;19.00;16.33;;;;;15.60;53.48;102282.72;5058918;28;45234;-52
2022/04/16 02:18:51;;;;;;;;;23.00;15.33;;;;;15.54;53.57;102281.41;5058320;28;46955;-47
2022/04/16 02:21:17;;;;;;;;;21.67;16.67;;;;;15.47;53.06;102280.31;5058649;28;45299;-46
2022/04/16 02:23:43;;;;;;;;;20.00;18.33;;;;;15.44;53.36;102281.44;5058649;28;45462;-44
2022/04/16 02:26:09;;;;;;;;;18.00;15.33;;;;;15.41;53.34;102286.22;5058488;28;45531;-44
2022/04/16 02:28:35;;;;;;;;;18.00;15.67;;;;;15.32;53.61;102276.34;5058508;28;45386;-43
2022/04/16 02:31:00;;;;;;;;;23.33;18.33;;;;;15.32;53.93;102282.56;5058255;28;45518;-44
2022/04/16 02:33:27;;;;;;;;;22.33;17.00;;;;;15.30;54.37;102273.81;5058731;28;45320;-43
2022/04/16 02:35:52;;;;;;;;;23.00;20.33;;;;;15.27;54.20;102287.50;5058611;28;45565;-44
2022/04/16 02:38:18;;;;;;;;;21.67;18.67;;;;;15.23;53.33;102278.88;5058088;28;46031;-43
2022/04/16 02:40:43;;;;;;;;;24.00;22.33;;;;;15.21;53.67;102282.66;5058701;28;45375;-45
2022/04/16 02:43:09;;;;;;;;;23.67;20.67;;;;;15.18;54.04;102288.34;5058747;28;45275;-44
2022/04/16 02:48:18;;;;;;;;;25.33;22.33;;;;;15.12;53.82;102291.56;5059030;28;45351;-50
2022/04/16 02:50:45;;;;;;;;;34.33;21.67;;;;;15.07;54.00;102293.81;5058985;28;45238;-42
2022/04/16 02:53:11;;;;;;;;;22.67;18.33;;;;;15.02;53.82;102291.53;5059630;28;45157;-44
2022/04/16 02:55:37;;;;;;;;;26.00;20.00;;;;;14.96;54.44;102292.09;5059096;28;45399;-44
2022/04/16 02:58:03;;;;;;;;;25.33;21.67;;;;;14.93;54.93;102287.84;5057877;28;46182;-46
2022/04/16 03:00:28;;;;;;;;;27.67;21.67;;;;;14.90;54.59;102287.28;5058039;28;45384;-42
2022/04/16 03:02:54;;;;;;;;;27.67;19.33;;;;;14.86;54.62;102286.69;5056381;28;45454;-43
2022/04/16 03:05:20;;;;;;;;;20.33;19.00;;;;;14.82;54.27;102279.91;5058125;28;45375;-44
2022/04/16 03:07:45;;;;;;;;;28.33;20.67;;;;;14.78;54.30;102285.69;5057892;28;46866;-44
2022/04/16 03:10:11;;;;;;;;;29.00;23.00;;;;;14.72;55.16;102273.69;5057799;28;45454;-43
2022/04/16 03:12:47;;;;;;;;;25.00;20.00;;;;;14.70;54.66;102281.84;5057866;28;45388;-43
2022/04/16 03:17:58;;;;;;;;;24.33;20.67;;;;;14.63;54.85;102275.38;5057650;28;45361;-43
2022/04/16 03:20:25;;;;;;;;;24.33;19.00;;;;;14.60;55.37;102278.31;5057528;28;45259;-45
2022/04/16 03:22:51;;;;;;;;;31.67;20.67;;;;;14.51;55.25;102271.09;5057586;28;45352;-44
2022/04/16 03:25:16;;;;;;;;;30.00;26.00;;;;;14.54;55.75;102278.00;5057685;28;45440;-44
2022/04/16 03:27:42;;;;;;;;;28.00;23.00;;;;;14.49;55.14;102267.69;5057389;28;45212;-44
2022/04/16 03:30:09;;;;;;;;;20.33;18.67;;;;;14.47;55.24;102275.00;5057416;28;45347;-45
2022/04/16 03:32:42;;;;;;;;;31.33;22.00;;;;;14.45;55.28;102282.28;5057796;28;45447;-44
2022/04/16 03:35:09;;;;;;;;;29.33;24.67;;;;;14.41;55.15;102281.75;5057544;28;45372;-44
2022/04/16 03:37:35;;;;;;;;;29.33;25.33;;;;;14.38;55.31;102279.31;5057338;28;47310;-44
2022/04/16 03:40:02;;;;;;;;;27.33;21.33;;;;;14.36;55.70;102273.25;5057269;28;45391;-43
2022/04/16 03:42:27;;;;;;;;;31.33;24.00;;;;;14.32;55.50;102266.47;5057581;28;45290;-42
2022/04/16 03:44:53;;;;;;;;;28.00;23.33;;;;;14.35;55.93;102273.38;5057367;28;45413;-42
2022/04/16 03:47:18;;;;;;;;;26.00;21.33;;;;;14.30;56.36;102270.28;5057210;28;46110;-43
2022/04/16 03:49:44;;;;;;;;;28.00;21.33;;;;;14.32;55.97;102279.84;5057139;28;45432;-43
2022/04/16 03:52:09;;;;;;;;;26.67;23.00;;;;;14.30;56.17;102284.50;5057336;28;45292;-48
2022/04/16 04:00:05;;;;;;;;;27.33;23.00;;;;;14.27;55.71;102270.53;5057008;28;45369;-43
2022/04/16 04:02:33;;;;;;;;;25.00;22.67;;;;;14.24;55.59;102263.59;5057232;28;45230;-44
2022/04/16 04:04:59;;;;;;;;;25.33;23.67;;;;;14.20;55.78;102263.03;5057205;28;45383;-48
2022/04/16 04:07:25;;;;;;;;;31.00;23.00;;;;;14.20;55.80;102267.56;5056965;28;45305;-43
2022/04/16 04:09:51;;;;;;;;;29.00;25.67;;;;;14.16;55.97;102269.66;5056873;28;45464;-43
2022/04/16 04:12:17;;;;;;;;;28.33;23.67;;;;;14.15;55.54;102275.09;5057012;28;45336;-43
2022/04/16 04:14:44;;;;;;;;;19.00;14.00;;;;;14.04;55.24;102261.81;5056560;28;45321;-43
2022/04/16 04:17:11;;;;;;;;;23.67;19.00;;;;;14.05;55.38;102272.38;5056599;28;46046;-44
2022/04/16 04:19:39;;;;;;;;;25.33;19.67;;;;;14.09;55.15;102283.69;5056813;28;45267;-43
2022/04/16 04:22:07;;;;;;;;;33.33;23.33;;;;;14.08;55.57;102280.16;5056764;28;45356;-45
2022/04/16 04:24:33;;;;;;;;;28.67;25.33;;;;;13.92;54.95;102255.69;5056964;28;45433;-44
2022/04/16 04:27:00;;;;;;;;;33.50;27.00;;;;;14.03;55.52;102282.38;5056533;28;46258;-45
2022/04/16 04:29:28;;;;;;;;;29.67;23.33;;;;;14.04;55.37;102284.06;5056654;28;45297;-43
2022/04/16 04:31:55;;;;;;;;;30.33;24.00;;;;;14.02;55.12;102283.34;5056570;28;45358;-46
2022/04/16 04:34:20;;;;;;;;;25.67;23.00;;;;;14.02;55.48;102291.38;5056814;28;45443;-43
2022/04/16 04:36:46;;;;;;;;;28.33;25.00;;;;;14.00;55.43;102287.16;5056340;28;46300;-43
2022/04/16 04:39:12;;;;;;;;;22.33;21.00;;;;;13.99;55.20;102299.69;5056465;28;45455;-44
2022/04/16 04:41:38;;;;;;;;;24.33;21.33;;;;;13.94;55.03;102296.53;5056616;28;45423;-44
2022/04/16 04:44:04;;;;;;;;;22.33;17.00;;;;;13.96;54.76;102292.75;5056827;28;45485;-43
2022/04/16 04:46:29;;;;;;;;;20.00;20.00;;;;;13.93;54.88;102293.00;5055953;28;45940;-44
2022/04/16 04:48:55;;;;;;;;;30.33;23.33;;;;;13.94;55.05;102296.53;5056675;28;45235;-43
2022/04/16 04:51:20;;;;;;;;;31.00;21.00;;;;;13.95;54.79;102300.91;5056689;28;45332;-43
2022/04/16 04:53:46;;;;;;;;;26.33;23.00;;;;;13.93;54.03;102297.50;5056746;28;45237;-43
2022/04/16 04:56:11;;;;;;;;;30.67;24.67;;;;;13.85;54.91;102282.13;5056249;28;46213;-43
2022/04/16 04:58:37;;;;;;;;;31.33;24.67;;;;;13.90;55.04;102287.91;5056138;28;45202;-44
2022/04/16 05:01:03;;;;;;;;;25.67;23.00;;;;;13.89;54.65;102293.41;5056417;28;46105;-44
2022/04/16 05:03:29;;;;;;;;;30.00;27.33;;;;;13.84;54.88;102287.59;5056515;28;45466;-43
2022/04/16 05:05:54;;;;;;;;;32.00;27.67;;;;;13.83;54.85;102286.75;5056017;28;45448;-42
2022/04/16 05:08:19;;;;;;;;;25.00;23.00;;;;;13.83;55.20;102300.13;5056330;28;45454;-43
2022/04/16 05:10:45;;;;;;;;;24.33;20.67;;;;;13.81;54.58;102304.75;5056210;28;45450;-47
2022/04/16 05:13:10;;;;;;;;;31.67;27.67;;;;;13.79;54.85;102303.19;5056444;28;45293;-48
2022/04/16 05:15:35;;;;;;;;;35.33;26.00;;;;;13.78;55.24;102299.69;5056077;28;45378;-43
2022/04/16 05:18:01;;;;;;;;;33.33;26.00;;;;;13.72;54.60;102289.47;5055884;28;45359;-44
2022/04/16 05:20:26;;;;;;;;;30.67;24.67;;;;;13.74;55.41;102308.94;5056315;28;45393;-44
2022/04/16 05:22:51;;;;;;;;;29.33;26.00;;;;;13.75;55.09;102315.13;5056245;28;45283;-43
2022/04/16 05:25:18;;;;;;;;;36.00;28.00;;;;;13.73;55.04;102313.41;5056650;28;46429;-43
2022/04/16 05:27:43;;;;;;;;;32.67;29.67;;;;;13.69;55.13;102309.31;5059579;28;45383;-44
2022/04/16 05:30:22;;;;;;;;;34.00;29.67;;;;;13.72;54.37;102321.56;5059236;28;45237;-44
2022/04/16 05:32:50;;;;;;;;;33.33;28.67;;;;;13.69;55.28;102316.47;5059642;28;45380;-51
2022/04/16 05:35:16;;;;;;;;;28.33;25.33;;;;;13.65;55.27;102315.91;5059050;28;46240;-44
2022/04/16 05:37:42;;;;;;;;;22.33;15.67;;;;;13.65;55.12;102325.72;5059173;28;45755;-45
2022/04/16 05:40:10;;;;;;;;;31.50;27.50;;;;;13.64;55.27;102327.56;5059450;28;45399;-45
2022/04/16 05:42:42;;;;;;;;;34.33;28.67;;;;;13.64;55.33;102332.91;5059220;28;45321;-48
2022/04/16 05:45:08;;;;;;;;;27.33;24.67;;;;;13.62;55.40;102332.19;5059004;28;46168;-45
2022/04/16 05:47:33;;;;;;;;;37.67;26.33;;;;;13.62;55.67;102336.72;5058979;28;45213;-45
2022/04/16 05:49:59;;;;;;;;;30.33;25.00;;;;;13.63;54.89;102343.75;5059040;28;45327;-43
2022/04/16 05:52:25;;;;;;;;;33.33;29.33;;;;;13.62;55.95;102345.56;5059288;28;45230;-43
2022/04/16 05:54:52;;;;;;;;;37.67;31.00;;;;;13.62;55.90;102348.25;5059025;28;45315;-45
2022/04/16 05:57:19;;;;;;;;;40.67;31.00;;;;;13.62;56.12;102353.59;5058626;28;45278;-44
2022/04/16 05:59:44;;;;;;;;;38.00;30.00;;;;;13.62;55.49;102342.91;5059119;28;45494;-44
2022/04/16 06:02:10;;;;;;;;;34.00;30.33;;;;;13.64;55.94;102351.63;5059189;28;45394;-44
2022/04/16 06:04:36;;;;;;;;;37.33;29.33;;;;;13.56;55.21;102330.03;5058566;28;45400;-43
2022/04/16 06:07:01;;;;;;;;;41.67;32.00;;;;;13.67;55.39;102351.38;5058878;28;45372;-45
2022/04/16 06:09:28;;;;;;;;;29.67;26.33;;;;;13.68;54.98;102357.56;5058905;28;45283;-45
2022/04/16 06:12:00;;;;;;;;;41.00;28.67;;;;;13.67;55.33;102363.91;5059182;28;45415;-53
2022/04/16 06:14:25;;;;;;;;;44.00;35.00;;;;;13.68;56.20;102361.09;5058356;28;46855;-44
2022/04/16 06:16:51;;;;;;;;;35.33;31.00;;;;;13.70;55.24;102361.84;5058450;28;45477;-44
2022/04/16 06:19:16;;;;;;;;;31.33;27.67;;;;;13.71;55.18;102371.53;5058702;28;45435;-42
2022/04/16 06:21:41;;;;;;;;;38.33;30.00;;;;;13.74;55.06;102373.13;5058804;28;45300;-50
2022/04/16 06:24:07;;;;;;;;;40.00;27.67;;;;;13.77;55.30;102372.00;5058454;28;45375;-50
2022/04/16 06:26:32;;;;;;;;;38.33;33.67;;;;;13.79;55.52;102365.56;5058391;28;45343;-50
2022/04/16 06:28:57;;;;;;;;;35.00;28.33;;;;;13.74;55.23;102362.44;5058677;28;45205;-50
2022/04/16 06:31:23;;;;;;;;;38.33;33.00;;;;;13.83;55.71;102376.84;5058868;28;45223;-44
2022/04/16 06:33:48;;;;;;;;;35.67;33.67;;;;;13.84;55.37;102368.69;5058258;28;45388;-46
2022/04/16 06:36:14;;;;;;;;;44.00;35.67;;;;;13.87;55.01;102367.59;5057670;28;45247;-47
2022/04/16 06:38:39;;;;;;;;;40.67;34.00;;;;;13.91;55.32;102377.06;5058595;28;45332;-46
2022/04/16 06:41:04;;;;;;;;;33.00;31.00;;;;;13.90;55.24;102372.66;5058600;28;45454;-53
2022/04/16 06:43:30;;;;;;;;;31.00;27.50;;;;;13.99;55.28;102371.94;5058390;28;45248;-53
2022/04/16 06:45:55;;;;;;;;;42.00;33.00;;;;;14.06;55.07;102374.91;5058153;28;45384;-44
2022/04/16 06:48:20;;;;;;;;;37.00;29.67;;;;;14.12;54.39;102369.06;5058075;28;45763;-54
2022/04/16 06:50:46;;;;;;;;;49.00;35.00;;;;;14.18;54.35;102368.53;5058434;28;45237;-49
2022/04/16 06:53:11;;;;;;;;;39.33;34.67;;;;;14.23;54.29;102363.63;5057982;28;46441;-43
2022/04/16 06:55:36;;;;;;;;;34.33;30.33;;;;;14.30;54.30;102369.31;5058308;28;45232;-51
2022/04/16 06:58:02;;;;;;;;;37.00;32.00;;;;;14.37;54.38;102368.66;5058044;28;45368;-49
2022/04/16 07:00:27;;;;;;;;;44.33;33.67;;;;;14.45;53.89;102366.16;5058091;28;45187;-45
2022/04/16 07:02:53;;;;;;;;;39.00;28.00;;;;;14.58;53.60;102370.47;5057736;28;46947;-50
2022/04/16 07:05:18;;;;;;;;;44.33;36.00;;;;;14.77;53.52;102367.91;5057814;28;45514;-47
2022/04/16 07:07:43;;;;;;;;;35.67;26.67;;;;;15.04;52.53;102369.97;5057650;28;45402;-45
2022/04/16 07:10:11;;;;;;;;;41.33;33.67;;;;;15.90;51.22;102346.13;5058049;28;45337;-53
2022/04/16 07:12:37;;;;;;;;;26.00;22.33;;;;;17.42;47.83;102361.97;5057402;28;46194;-45
2022/04/16 07:15:02;;;;;;;;;36.67;30.67;;;;;18.49;46.36;102356.47;5057539;28;45417;-47
2022/04/16 07:17:28;;;;;;;;;42.67;30.67;;;;;19.30;45.08;102352.47;5057996;28;45328;-47
2022/04/16 07:19:54;;;;;;;;;34.00;30.33;;;;;19.92;42.36;102348.34;5057781;28;45358;-53
2022/04/16 07:22:20;;;;;;;;;38.00;27.00;;;;;20.28;41.86;102342.59;5057286;28;47305;-46
2022/04/16 07:24:47;;;;;;;;;36.33;31.00;;;;;20.08;41.62;102341.25;5057324;28;45373;-49
2022/04/16 07:27:13;;;;;;;;;38.67;28.00;;;;;19.82;43.62;102344.13;5057703;28;45484;-53
2022/04/16 07:29:38;;;;;;;;;33.33;28.67;;;;;19.66;42.82;102342.28;5057766;28;45350;-48
2022/04/16 07:32:04;;;;;;;;;32.33;27.33;;;;;19.90;41.30;102344.97;5057393;28;47223;-44
2022/04/16 07:34:29;;;;;;;;;38.33;28.67;;;;;20.27;40.14;102351.72;5057167;28;45419;-46
2022/04/16 07:36:55;;;;;;;;;33.00;30.33;;;;;20.67;40.46;102342.66;5057604;28;45314;-43
2022/04/16 07:39:21;;;;;;;;;29.67;26.33;;;;;20.96;40.90;102349.31;5057628;28;45368;-50
2022/04/16 07:41:47;;;;;;;;;31.33;26.67;;;;;21.06;39.96;102349.94;5057137;28;46915;-53
2022/04/16 07:44:12;;;;;;;;;31.00;26.33;;;;;21.33;39.81;102353.22;5057283;28;45422;-47
2022/04/16 07:46:38;;;;;;;;;31.00;28.00;;;;;22.02;37.80;102353.19;5057222;28;45446;-44
2022/04/16 07:49:04;;;;;;;;;35.67;26.33;;;;;23.14;36.60;102354.03;5056369;28;45430;-43
2022/04/16 07:51:29;;;;;;;;;32.67;24.33;;;;;23.99;34.77;102355.94;5057048;28;45322;-43
2022/04/16 07:53:56;;;;;;;;;30.33;27.00;;;;;24.66;33.21;102360.00;5057037;28;45335;-42
2022/04/16 07:56:22;;;;;;;;;31.00;28.67;;;;;25.12;34.16;102354.78;5057190;28;45225;-43
2022/04/16 07:58:48;;;;;;;;;37.00;28.67;;;;;25.55;32.04;102351.75;5057050;28;45226;-43
2022/04/16 08:01:13;;;;;;;;;37.00;31.00;;;;;25.91;30.91;102358.72;5056920;28;46284;-43
2022/04/16 08:03:39;;;;;;;;;28.00;26.00;;;;;26.05;31.70;102348.69;5056886;28;45374;-42
2022/04/16 08:06:04;;;;;;;;;28.75;27.00;;;;;26.10;31.47;102359.78;5057051;28;45280;-44
2022/04/16 08:08:30;;;;;;;;;34.75;26.00;;;;;26.08;31.95;102361.88;5057061;28;45346;-42
2022/04/16 08:10:56;;;;;;;;;33.00;26.50;;;;;25.83;31.29;102348.88;5056964;28;45254;-44
2022/04/16 08:13:22;;;;;;;;;29.50;26.75;;;;;25.92;31.19;102359.59;5056946;28;45488;-42
2022/04/16 08:15:47;;;;;;;;;33.75;25.25;;;;;25.95;31.29;102343.63;5057121;28;45382;-45
2022/04/16 08:18:13;;;;;;;;;31.50;28.50;;;;;26.23;31.10;102364.38;5057011;28;45470;-43
2022/04/16 08:20:39;;;;;;;;;32.50;25.25;;;;;26.40;30.92;102367.50;5056501;28;46984;-47
2022/04/16 08:23:06;;;;;;;;;33.50;27.25;;;;;26.61;30.88;102362.66;5056808;28;45195;-45
2022/04/16 08:28:03;;;;;;;;;32.75;27.75;;;;;27.30;30.03;102365.75;5056989;28;45463;-46
2022/04/16 08:30:29;;;;;;;;;28.25;23.50;;;;;27.69;29.96;102374.78;5056664;28;45486;-46
2022/04/16 08:32:54;;;;;;;;;24.50;20.75;;;;;27.95;29.27;102374.59;5056705;28;45250;-47
2022/04/16 08:35:20;;;;;;;;;24.75;22.00;;;;;28.24;28.26;102369.50;5056751;28;45394;-50
2022/04/16 08:37:47;;;;;;;;;27.25;23.50;;;;;28.82;27.41;102374.56;5056784;28;45431;-47
2022/04/16 08:40:14;;;;;;;;;24.80;24.00;;;;;30.03;27.72;102369.94;5056510;28;46296;-45
2022/04/16 08:42:42;;;;;;;;;30.00;27.00;;;;;31.89;24.68;102371.59;5056611;28;45384;-48
2022/04/16 08:45:09;;;;;;;;;30.80;26.40;;;;;33.70;23.61;102373.38;5056700;28;45262;-46
2022/04/16 08:47:35;;;;;;;;;32.00;23.00;;;;;35.03;21.32;102359.59;5056911;28;45397;-46
2022/04/16 08:50:05;;;;;;;;;31.40;28.00;;;;;36.04;19.39;102363.56;5056305;28;45567;-50
2022/04/16 08:52:32;;;;;;;;;26.60;25.00;;;;;36.96;18.43;102369.66;5056332;28;45500;-48
2022/04/16 08:54:59;;;;;;;;;28.00;22.40;;;;;37.57;19.33;102360.09;5056687;28;45487;-44
2022/04/16 08:57:24;;;;;;;;;26.60;25.20;;;;;38.21;18.25;102367.28;5056328;28;45261;-46
2022/04/16 08:59:54;;;;;;;;;22.00;20.25;;;;;38.80;17.46;102371.63;5058006;28;45210;-46
2022/04/16 09:02:22;;;;;;;;;23.40;19.60;;;;;39.44;16.75;102380.44;5060027;28;45432;-44
2022/04/16 09:04:49;;;;;;;;;24.60;23.40;;;;;40.13;16.00;102367.56;5059565;28;45466;-45
2022/04/16 09:07:15;;;;;;;;;23.20;21.80;;;;;40.79;15.76;102373.78;5060019;28;45217;-46
2022/04/16 09:09:41;;;;;;;;;25.20;21.40;;;;;41.57;15.77;102366.06;5059535;28;46226;-45
2022/04/16 09:12:20;;;;;;;;;19.80;17.80;;;;;41.89;16.27;102372.56;5059774;28;45205;-45
2022/04/16 09:14:46;;;;;;;;;23.80;19.00;;;;;42.29;13.71;102358.59;5059849;28;45342;-50
2022/04/16 09:17:18;;;;;;;;;25.25;22.00;;;;;42.58;14.31;102364.44;5059780;28;45411;-45
2022/04/16 09:19:57;;;;;;;;;23.80;19.00;;;;;42.91;13.56;102358.41;5059416;28;46278;-49
2022/04/16 09:22:35;;;;;;;;;20.20;19.00;;;;;43.11;12.54;102356.97;5059380;28;45368;-45
2022/04/16 09:25:02;;;;;;;;;21.20;18.80;;;;;43.46;13.80;102362.56;5059754;28;45443;-44
2022/04/16 09:27:38;;;;;;;;;20.80;18.00;;;;;43.72;13.48;102326.88;5059602;28;45392;-46
2022/04/16 09:30:04;;;;;;;;;20.00;17.80;;;;;44.33;14.01;102349.06;5058293;28;46517;-46
2022/04/16 09:32:30;;;;;;;;;17.80;16.60;;;;;44.33;13.68;102337.84;5059363;28;45430;-45
2022/04/16 09:34:56;;;;;;;;;25.20;21.00;;;;;44.59;12.29;102346.13;5059206;28;45366;-44
2022/04/16 09:37:24;;;;;;;;;21.25;19.75;;;;;44.88;14.01;102347.22;5059627;28;45307;-44
2022/04/16 09:39:50;;;;;;;;;18.60;17.60;;;;;45.08;11.61;102354.03;5059298;28;46164;-43
2022/04/16 09:42:26;;;;;;;;;18.75;17.50;;;;;45.17;12.60;102347.16;5058096;28;45475;-44
2022/04/16 09:44:51;;;;;;;;;19.40;17.80;;;;;45.38;12.83;102352.72;5059321;28;45281;-44
2022/04/16 09:47:22;;;;;;;;;14.25;14.25;;;;;45.23;12.13;102342.97;5059820;28;45215;-45
2022/04/16 09:49:52;;;;;;;;;15.40;14.40;;;;;45.52;10.98;102341.22;5058846;28;46381;-45
2022/04/16 09:52:22;;;;;;;;;19.40;15.60;;;;;45.65;11.65;102350.50;5058864;28;45549;-44
2022/04/16 09:54:50;;;;;;;;;14.40;14.40;;;;;46.07;11.37;102339.09;5059562;28;45387;-44
2022/04/16 09:57:20;;;;;;;;;20.20;16.40;;;;;46.30;12.20;102339.44;5059139;28;45318;-45
2022/04/16 09:59:51;;;;;;;;;16.60;16.60;;;;;46.51;10.78;102337.31;5059141;28;45433;-43
2022/04/16 10:02:17;;;;;;;;;16.20;15.20;;;;;46.67;10.69;102331.78;5058835;28;45221;-45
2022/04/16 10:04:42;;;;;;;;;14.75;14.25;;;;;46.65;10.34;102334.97;5058887;28;45219;-45
2022/04/16 10:07:10;;;;;;;;;13.00;13.00;;;;;46.82;10.75;102333.84;5058808;28;45348;-44
2022/04/16 10:09:41;;;;;;;;;16.40;15.40;;;;;47.00;9.80;102337.22;5058531;28;46227;-50
2022/04/16 10:15:03;;;;;;;;;17.80;16.00;;;;;46.92;10.62;102343.78;5058720;28;45745;-45
2022/04/16 10:17:35;;;;;;;;;17.20;16.00;;;;;47.28;10.91;102342.00;5058992;28;45359;-44
2022/04/16 10:20:26;;;;;;;;;17.20;16.80;;;;;47.19;9.71;102339.34;5058237;28;47005;-46
2022/04/16 10:22:56;;;;;;;;;14.20;14.00;;;;;47.22;10.31;102341.44;5055386;28;45202;-46
2022/04/16 10:25:32;;;;;;;;;16.60;16.20;;;;;46.86;10.89;102342.38;5058373;28;45232;-48
2022/04/16 10:28:04;;;;;;;;;16.40;15.60;;;;;46.56;10.60;102344.72;5058561;28;45179;-47
2022/04/16 10:30:40;;;;;;;;;12.80;12.00;;;;;46.25;11.25;102346.13;5058290;28;45991;-44
2022/04/16 10:33:23;;;;;;;;;13.60;12.00;;;;;45.32;11.46;102348.50;5056977;28;45317;-45
2022/04/16 10:35:49;;;;;;;;;15.40;15.20;;;;;43.93;11.62;102338.19;5058168;28;45423;-44
2022/04/16 10:38:24;;;;;;;;;15.25;15.25;;;;;42.81;12.46;102334.34;5058484;28;45380;-45
2022/04/16 10:41:00;;;;;;;;;14.60;13.80;;;;;42.96;12.50;102335.84;5058076;28;45445;-45
2022/04/16 10:43:31;;;;;;;;;12.40;12.20;;;;;43.01;12.21;102332.06;5058169;28;45297;-47
2022/04/16 10:46:08;;;;;;;;;14.00;12.40;;;;;42.97;12.59;102340.28;5057928;28;45446;-46
2022/04/16 10:48:38;;;;;;;;;14.00;12.20;;;;;42.34;12.01;102338.84;5058168;28;45332;-44
2022/04/16 10:51:05;;;;;;;;;9.60;9.60;;;;;42.55;12.35;102339.06;5057753;28;45491;-44
2022/04/16 10:53:37;;;;;;;;;10.60;10.40;;;;;43.49;11.40;102331.06;5058073;28;45429;-45
2022/04/16 10:56:11;;;;;;;;;11.20;11.20;;;;;44.42;11.05;102330.22;5058075;28;45424;-47
2022/04/16 10:58:39;;;;;;;;;12.40;12.20;;;;;45.28;10.71;102328.72;5057771;28;45345;-48
2022/04/16 11:01:10;;;;;;;;;14.20;12.00;;;;;45.87;10.25;102332.41;5057840;28;46145;-45
2022/04/16 11:03:49;;;;;;;;;18.80;14.20;;;;;46.31;11.49;102325.00;5057732;28;45427;-44
2022/04/16 11:06:16;;;;;;;;;16.00;14.00;;;;;46.29;10.89;102327.38;5057606;28;45315;-47
2022/04/16 11:08:45;;;;;;;;;16.60;15.20;;;;;45.89;9.75;102322.44;5057957;28;45278;-49
2022/04/16 11:11:12;;;;;;;;;16.60;13.40;;;;;46.13;11.16;102310.34;5057534;28;46225;-47
2022/04/16 11:13:39;;;;;;;;;14.00;12.20;;;;;45.78;10.44;102310.00;5057571;28;45329;-46
2022/04/16 11:16:07;;;;;;;;;13.20;12.60;;;;;45.84;11.03;102314.22;5057752;28;45354;-47
2022/04/16 11:18:42;;;;;;;;;15.00;13.40;;;;;46.09;10.07;102315.06;5057834;28;45313;-49
2022/04/16 11:21:13;;;;;;;;;13.00;10.20;;;;;46.48;11.04;102318.28;5057382;28;47215;-47
2022/04/16 11:23:43;;;;;;;;;12.40;8.20;;;;;46.35;10.30;102313.88;5057306;28;45311;-51
2022/04/16 11:34:41;;;;;;;;;12.00;12.00;;;;;45.33;10.92;102321.22;5057438;28;45458;-47